sensor_id;sensor_type;location;lat;lon;timestamp;temperature;humidity
2010;DHT22;1008;47.404;8.502;2023-08-20T00:01:12;26.30;99.90
2010;DHT22;1008;47.404;8.502;2023-08-20T00:03:41;26.30;99.90
2010;DHT22;1008;47.404;8.502;2023-08-20T00:06:09;26.10;99.90
2010;DHT22;1008;47.404;8.502;2023-08-20T00:08:36;25.90;99.90
2010;DHT22;1008;47.404;8.502;2023-08-20T00:11:03;25.80;99.90
2010;DHT22;1008;47.404;8.502;2023-08-20T00:13:31;25.70;99.90
2010;DHT22;1008;47.404;8.502;2023-08-20T00:15:58;25.60;99.90
2010;DHT22;1008;47.404;8.502;2023-08-20T00:18:25;25.60;99.90
2010;DHT22;1008;47.404;8.502;2023-08-20T00:20:53;25.60;99.90
2010;DHT22;1008;47.404;8.502;2023-08-20T00:23:20;25.60;99.90
2010;DHT22;1008;47.404;8.502;2023-08-20T00:25:47;25.70;99.90
2010;DHT22;1008;47.404;8.502;2023-08-20T00:28:14;25.90;99.90
2010;DHT22;1008;47.404;8.502;2023-08-20T00:30:42;25.90;99.90
2010;DHT22;1008;47.404;8.502;2023-08-20T00:33:09;26.00;99.90
2010;DHT22;1008;47.404;8.502;2023-08-20T00:35:36;25.90;99.90
2010;DHT22;1008;47.404;8.502;2023-08-20T00:38:03;25.90;99.90
2010;DHT22;1008;47.404;8.502;2023-08-20T00:40:30;25.90;99.90
2010;DHT22;1008;47.404;8.502;2023-08-20T00:42:57;25.90;99.90
2010;DHT22;1008;47.404;8.502;2023-08-20T00:45:24;25.80;99.90
2010;DHT22;1008;47.404;8.502;2023-08-20T00:47:52;25.80;99.90
2010;DHT22;1008;47.404;8.502;2023-08-20T00:50:19;25.70;99.90
2010;DHT22;1008;47.404;8.502;2023-08-20T00:52:46;25.70;99.90
2010;DHT22;1008;47.404;8.502;2023-08-20T00:55:13;25.50;99.90
2010;DHT22;1008;47.404;8.502;2023-08-20T00:57:40;25.50;99.90
2010;DHT22;1008;47.404;8.502;2023-08-20T01:00:08;25.40;99.90
2010;DHT22;1008;47.404;8.502;2023-08-20T01:02:37;25.40;99.90
2010;DHT22;1008;47.404;8.502;2023-08-20T01:05:08;25.30;99.90
2010;DHT22;1008;47.404;8.502;2023-08-20T01:07:43;25.20;99.90
2010;DHT22;1008;47.404;8.502;2023-08-20T01:10:18;25.30;99.90
2010;DHT22;1008;47.404;8.502;2023-08-20T01:12:46;25.40;99.90
2010;DHT22;1008;47.404;8.502;2023-08-20T01:15:13;25.40;99.90
2010;DHT22;1008;47.404;8.502;2023-08-20T01:17:40;25.40;99.90
2010;DHT22;1008;47.404;8.502;2023-08-20T01:20:10;25.30;99.90
2010;DHT22;1008;47.404;8.502;2023-08-20T01:22:57;25.40;99.90
2010;DHT22;1008;47.404;8.502;2023-08-20T01:25:36;25.40;99.90
2010;DHT22;1008;47.404;8.502;2023-08-20T01:28:19;25.60;99.90
2010;DHT22;1008;47.404;8.502;2023-08-20T01:30:47;25.60;99.90
2010;DHT22;1008;47.404;8.502;2023-08-20T01:33:15;25.60;99.90
2010;DHT22;1008;47.404;8.502;2023-08-20T01:35:42;25.50;99.90
2010;DHT22;1008;47.404;8.502;2023-08-20T01:38:10;25.50;99.90
2010;DHT22;1008;47.404;8.502;2023-08-20T01:40:37;25.40;99.90
2010;DHT22;1008;47.404;8.502;2023-08-20T01:43:04;25.30;99.90
2010;DHT22;1008;47.404;8.502;2023-08-20T01:45:32;25.30;99.90
2010;DHT22;1008;47.404;8.502;2023-08-20T01:47:58;25.30;99.90
2010;DHT22;1008;47.404;8.502;2023-08-20T01:50:25;25.30;99.90
2010;DHT22;1008;47.404;8.502;2023-08-20T01:52:52;25.00;99.90
2010;DHT22;1008;47.404;8.502;2023-08-20T01:55:19;25.00;99.90
2010;DHT22;1008;47.404;8.502;2023-08-20T01:57:45;25.00;99.90
2010;DHT22;1008;47.404;8.502;2023-08-20T02:00:13;25.10;99.90
2010;DHT22;1008;47.404;8.502;2023-08-20T02:02:41;25.20;99.90
2010;DHT22;1008;47.404;8.502;2023-08-20T02:05:08;25.20;99.90
2010;DHT22;1008;47.404;8.502;2023-08-20T02:07:36;25.20;99.90
2010;DHT22;1008;47.404;8.502;2023-08-20T02:10:03;25.30;99.90
2010;DHT22;1008;47.404;8.502;2023-08-20T02:12:30;25.30;99.90
2010;DHT22;1008;47.404;8.502;2023-08-20T02:14:57;25.30;99.90
2010;DHT22;1008;47.404;8.502;2023-08-20T02:17:23;25.20;99.90
2010;DHT22;1008;47.404;8.502;2023-08-20T02:19:51;25.00;99.90
2010;DHT22;1008;47.404;8.502;2023-08-20T02:22:18;25.00;99.90
2010;DHT22;1008;47.404;8.502;2023-08-20T02:24:46;25.00;99.90
2010;DHT22;1008;47.404;8.502;2023-08-20T02:27:13;25.00;99.90
2010;DHT22;1008;47.404;8.502;2023-08-20T02:29:39;25.00;99.90
2010;DHT22;1008;47.404;8.502;2023-08-20T02:32:06;24.90;99.90
2010;DHT22;1008;47.404;8.502;2023-08-20T02:34:33;25.10;99.90
2010;DHT22;1008;47.404;8.502;2023-08-20T02:37:01;25.10;99.90
2010;DHT22;1008;47.404;8.502;2023-08-20T02:39:27;25.00;99.90
2010;DHT22;1008;47.404;8.502;2023-08-20T02:41:54;25.00;99.90
2010;DHT22;1008;47.404;8.502;2023-08-20T02:44:21;24.90;99.90
2010;DHT22;1008;47.404;8.502;2023-08-20T02:46:47;25.00;99.90
2010;DHT22;1008;47.404;8.502;2023-08-20T02:49:14;25.00;99.90
2010;DHT22;1008;47.404;8.502;2023-08-20T02:51:42;25.00;99.90
2010;DHT22;1008;47.404;8.502;2023-08-20T02:54:10;24.90;99.90
2010;DHT22;1008;47.404;8.502;2023-08-20T02:56:37;24.90;99.90
2010;DHT22;1008;47.404;8.502;2023-08-20T02:59:04;24.80;99.90
2010;DHT22;1008;47.404;8.502;2023-08-20T03:01:31;24.70;99.90
2010;DHT22;1008;47.404;8.502;2023-08-20T03:03:57;24.60;99.90
2010;DHT22;1008;47.404;8.502;2023-08-20T03:06:24;24.60;99.90
2010;DHT22;1008;47.404;8.502;2023-08-20T03:08:51;24.60;99.90
2010;DHT22;1008;47.404;8.502;2023-08-20T03:11:19;24.60;99.90
2010;DHT22;1008;47.404;8.502;2023-08-20T03:13:46;24.50;99.90
2010;DHT22;1008;47.404;8.502;2023-08-20T03:16:12;24.50;99.90
2010;DHT22;1008;47.404;8.502;2023-08-20T03:18:39;24.50;99.90
2010;DHT22;1008;47.404;8.502;2023-08-20T03:21:05;24.20;1.00
2010;DHT22;1008;47.404;8.502;2023-08-20T03:23:32;24.40;1.00
2010;DHT22;1008;47.404;8.502;2023-08-20T03:25:59;24.50;1.00
2010;DHT22;1008;47.404;8.502;2023-08-20T03:28:27;24.50;1.00
2010;DHT22;1008;47.404;8.502;2023-08-20T03:30:53;24.40;1.00
2010;DHT22;1008;47.404;8.502;2023-08-20T03:33:20;24.40;1.00
2010;DHT22;1008;47.404;8.502;2023-08-20T03:35:47;24.50;1.00
2010;DHT22;1008;47.404;8.502;2023-08-20T03:38:14;24.50;1.00
2010;DHT22;1008;47.404;8.502;2023-08-20T03:40:40;24.40;1.00
2010;DHT22;1008;47.404;8.502;2023-08-20T03:43:07;24.40;1.00
2010;DHT22;1008;47.404;8.502;2023-08-20T03:45:35;24.40;1.00
2010;DHT22;1008;47.404;8.502;2023-08-20T03:48:02;24.30;1.00
2010;DHT22;1008;47.404;8.502;2023-08-20T03:50:29;24.20;1.00
2010;DHT22;1008;47.404;8.502;2023-08-20T03:52:55;24.30;1.00
2010;DHT22;1008;47.404;8.502;2023-08-20T03:55:22;24.30;1.00
2010;DHT22;1008;47.404;8.502;2023-08-20T03:57:49;24.20;1.00
2010;DHT22;1008;47.404;8.502;2023-08-20T04:00:16;24.40;1.00
2010;DHT22;1008;47.404;8.502;2023-08-20T04:02:44;24.20;1.00
2010;DHT22;1008;47.404;8.502;2023-08-20T04:05:10;24.30;1.00
2010;DHT22;1008;47.404;8.502;2023-08-20T04:07:37;24.60;1.00
2010;DHT22;1008;47.404;8.502;2023-08-20T04:10:04;24.20;1.00
2010;DHT22;1008;47.404;8.502;2023-08-20T04:12:31;24.30;1.00
2010;DHT22;1008;47.404;8.502;2023-08-20T04:14:58;24.30;1.00
2010;DHT22;1008;47.404;8.502;2023-08-20T04:17:24;24.40;1.00
2010;DHT22;1008;47.404;8.502;2023-08-20T04:19:52;24.10;1.00
2010;DHT22;1008;47.404;8.502;2023-08-20T04:22:19;24.10;1.00
2010;DHT22;1008;47.404;8.502;2023-08-20T04:24:46;24.10;1.00
2010;DHT22;1008;47.404;8.502;2023-08-20T04:27:12;24.10;1.00
2010;DHT22;1008;47.404;8.502;2023-08-20T04:29:39;24.00;1.00
2010;DHT22;1008;47.404;8.502;2023-08-20T04:32:06;24.00;1.00
2010;DHT22;1008;47.404;8.502;2023-08-20T04:34:33;23.80;1.00
2010;DHT22;1008;47.404;8.502;2023-08-20T04:37:01;23.80;1.00
2010;DHT22;1008;47.404;8.502;2023-08-20T04:39:27;24.00;1.00
2010;DHT22;1008;47.404;8.502;2023-08-20T04:41:54;23.90;1.00
2010;DHT22;1008;47.404;8.502;2023-08-20T04:44:22;23.90;1.00
2010;DHT22;1008;47.404;8.502;2023-08-20T04:46:49;24.00;1.00
2010;DHT22;1008;47.404;8.502;2023-08-20T04:49:16;24.10;1.00
2010;DHT22;1008;47.404;8.502;2023-08-20T04:51:42;24.20;1.00
2010;DHT22;1008;47.404;8.502;2023-08-20T04:54:10;24.00;1.00
2010;DHT22;1008;47.404;8.502;2023-08-20T04:56:37;24.10;1.00
2010;DHT22;1008;47.404;8.502;2023-08-20T04:59:04;24.00;1.00
2010;DHT22;1008;47.404;8.502;2023-08-20T05:01:30;24.00;1.00
2010;DHT22;1008;47.404;8.502;2023-08-20T05:03:57;24.00;1.00
2010;DHT22;1008;47.404;8.502;2023-08-20T05:06:24;24.00;1.00
2010;DHT22;1008;47.404;8.502;2023-08-20T05:08:50;24.00;1.00
2010;DHT22;1008;47.404;8.502;2023-08-20T05:11:18;24.00;1.00
2010;DHT22;1008;47.404;8.502;2023-08-20T05:13:47;24.00;1.00
2010;DHT22;1008;47.404;8.502;2023-08-20T05:16:13;24.00;1.00
2010;DHT22;1008;47.404;8.502;2023-08-20T05:18:40;23.90;1.00
2010;DHT22;1008;47.404;8.502;2023-08-20T05:21:07;23.90;1.00
2010;DHT22;1008;47.404;8.502;2023-08-20T05:23:33;23.80;1.00
2010;DHT22;1008;47.404;8.502;2023-08-20T05:26:00;23.70;1.00
2010;DHT22;1008;47.404;8.502;2023-08-20T05:28:28;23.70;1.00
2010;DHT22;1008;47.404;8.502;2023-08-20T05:30:55;23.80;1.00
2010;DHT22;1008;47.404;8.502;2023-08-20T05:33:22;23.80;1.00
2010;DHT22;1008;47.404;8.502;2023-08-20T05:35:49;23.90;1.00
2010;DHT22;1008;47.404;8.502;2023-08-20T05:38:16;24.00;1.00
2010;DHT22;1008;47.404;8.502;2023-08-20T05:40:43;24.30;1.00
2010;DHT22;1008;47.404;8.502;2023-08-20T05:43:10;24.30;1.00
2010;DHT22;1008;47.404;8.502;2023-08-20T05:45:38;24.40;1.00
2010;DHT22;1008;47.404;8.502;2023-08-20T05:48:05;24.50;1.00
2010;DHT22;1008;47.404;8.502;2023-08-20T05:50:32;24.50;1.00
2010;DHT22;1008;47.404;8.502;2023-08-20T05:52:59;24.70;1.00
2010;DHT22;1008;47.404;8.502;2023-08-20T05:55:26;24.80;1.00
2010;DHT22;1008;47.404;8.502;2023-08-20T05:57:53;25.00;1.00
2010;DHT22;1008;47.404;8.502;2023-08-20T06:00:19;24.80;1.00
2010;DHT22;1008;47.404;8.502;2023-08-20T06:02:47;24.90;1.00
2010;DHT22;1008;47.404;8.502;2023-08-20T06:05:14;25.10;1.00
2010;DHT22;1008;47.404;8.502;2023-08-20T06:07:41;25.00;1.00
2010;DHT22;1008;47.404;8.502;2023-08-20T06:10:08;24.90;1.00
2010;DHT22;1008;47.404;8.502;2023-08-20T06:12:35;24.60;1.00
2010;DHT22;1008;47.404;8.502;2023-08-20T06:15:02;24.70;1.00
2010;DHT22;1008;47.404;8.502;2023-08-20T06:17:29;24.70;1.00
2010;DHT22;1008;47.404;8.502;2023-08-20T06:19:57;24.80;1.00
2010;DHT22;1008;47.404;8.502;2023-08-20T06:22:24;24.70;1.00
2010;DHT22;1008;47.404;8.502;2023-08-20T06:24:50;24.80;1.00
2010;DHT22;1008;47.404;8.502;2023-08-20T06:27:17;25.00;1.00
2010;DHT22;1008;47.404;8.502;2023-08-20T06:29:44;25.10;1.00
2010;DHT22;1008;47.404;8.502;2023-08-20T06:32:11;25.10;1.00
2010;DHT22;1008;47.404;8.502;2023-08-20T06:34:37;25.00;1.00
2010;DHT22;1008;47.404;8.502;2023-08-20T06:37:05;25.30;1.00
2010;DHT22;1008;47.404;8.502;2023-08-20T06:39:32;25.30;1.00
2010;DHT22;1008;47.404;8.502;2023-08-20T06:41:59;25.40;1.00
2010;DHT22;1008;47.404;8.502;2023-08-20T06:44:25;25.60;1.00
2010;DHT22;1008;47.404;8.502;2023-08-20T06:46:52;25.60;1.00
2010;DHT22;1008;47.404;8.502;2023-08-20T06:49:19;25.60;1.00
2010;DHT22;1008;47.404;8.502;2023-08-20T06:51:46;25.50;1.00
2010;DHT22;1008;47.404;8.502;2023-08-20T06:54:14;25.70;1.00
2010;DHT22;1008;47.404;8.502;2023-08-20T06:56:41;25.90;1.00
2010;DHT22;1008;47.404;8.502;2023-08-20T06:59:08;25.80;1.00
2010;DHT22;1008;47.404;8.502;2023-08-20T07:01:35;25.80;1.00
2010;DHT22;1008;47.404;8.502;2023-08-20T07:04:02;26.00;1.00
2010;DHT22;1008;47.404;8.502;2023-08-20T07:06:32;26.10;1.00
2010;DHT22;1008;47.404;8.502;2023-08-20T07:08:59;26.20;1.00
2010;DHT22;1008;47.404;8.502;2023-08-20T07:11:27;25.90;1.00
2010;DHT22;1008;47.404;8.502;2023-08-20T07:13:54;26.00;1.00
2010;DHT22;1008;47.404;8.502;2023-08-20T07:16:20;26.20;1.00
2010;DHT22;1008;47.404;8.502;2023-08-20T07:18:47;26.40;1.00
2010;DHT22;1008;47.404;8.502;2023-08-20T07:21:14;26.50;1.00
2010;DHT22;1008;47.404;8.502;2023-08-20T07:23:40;26.50;1.00
2010;DHT22;1008;47.404;8.502;2023-08-20T07:26:09;26.70;1.00
2010;DHT22;1008;47.404;8.502;2023-08-20T07:28:39;26.90;1.00
2010;DHT22;1008;47.404;8.502;2023-08-20T07:31:26;27.10;1.00
2010;DHT22;1008;47.404;8.502;2023-08-20T07:33:54;27.10;1.00
2010;DHT22;1008;47.404;8.502;2023-08-20T07:36:23;27.20;1.00
2010;DHT22;1008;47.404;8.502;2023-08-20T07:38:50;27.30;99.90
2010;DHT22;1008;47.404;8.502;2023-08-20T07:41:18;26.80;99.90
2010;DHT22;1008;47.404;8.502;2023-08-20T07:43:47;26.90;99.90
2010;DHT22;1008;47.404;8.502;2023-08-20T07:46:14;27.50;99.90
2010;DHT22;1008;47.404;8.502;2023-08-20T07:48:41;27.20;99.90
2010;DHT22;1008;47.404;8.502;2023-08-20T07:51:08;27.50;99.90
2010;DHT22;1008;47.404;8.502;2023-08-20T07:53:35;27.50;99.90
2010;DHT22;1008;47.404;8.502;2023-08-20T07:56:03;27.60;99.90
2010;DHT22;1008;47.404;8.502;2023-08-20T07:58:30;27.70;99.90
2010;DHT22;1008;47.404;8.502;2023-08-20T08:00:58;27.60;99.90
2010;DHT22;1008;47.404;8.502;2023-08-20T08:03:25;27.60;99.90
2010;DHT22;1008;47.404;8.502;2023-08-20T08:05:52;27.80;99.90
2010;DHT22;1008;47.404;8.502;2023-08-20T08:08:21;28.10;99.90
2010;DHT22;1008;47.404;8.502;2023-08-20T08:10:48;28.00;99.90
2010;DHT22;1008;47.404;8.502;2023-08-20T08:13:18;28.20;99.90
2010;DHT22;1008;47.404;8.502;2023-08-20T08:15:45;28.60;99.90
2010;DHT22;1008;47.404;8.502;2023-08-20T08:18:13;28.40;99.90
2010;DHT22;1008;47.404;8.502;2023-08-20T08:20:40;28.20;99.90
2010;DHT22;1008;47.404;8.502;2023-08-20T08:23:07;28.50;99.90
2010;DHT22;1008;47.404;8.502;2023-08-20T08:25:34;28.30;99.90
2010;DHT22;1008;47.404;8.502;2023-08-20T08:28:00;28.50;99.90
2010;DHT22;1008;47.404;8.502;2023-08-20T08:30:27;28.70;99.90
2010;DHT22;1008;47.404;8.502;2023-08-20T08:32:55;28.70;99.90
2010;DHT22;1008;47.404;8.502;2023-08-20T08:35:23;29.00;99.90
2010;DHT22;1008;47.404;8.502;2023-08-20T08:37:49;29.10;99.90
2010;DHT22;1008;47.404;8.502;2023-08-20T08:40:16;29.40;99.90
2010;DHT22;1008;47.404;8.502;2023-08-20T08:42:48;29.30;99.90
2010;DHT22;1008;47.404;8.502;2023-08-20T08:45:16;29.20;99.90
2010;DHT22;1008;47.404;8.502;2023-08-20T08:47:44;29.30;99.90
2010;DHT22;1008;47.404;8.502;2023-08-20T08:50:11;29.20;99.90
2010;DHT22;1008;47.404;8.502;2023-08-20T08:52:39;29.20;99.90
2010;DHT22;1008;47.404;8.502;2023-08-20T08:55:08;29.40;99.90
2010;DHT22;1008;47.404;8.502;2023-08-20T08:57:35;29.40;99.90
2010;DHT22;1008;47.404;8.502;2023-08-20T09:00:01;29.60;99.90
2010;DHT22;1008;47.404;8.502;2023-08-20T09:02:29;29.50;99.90
2010;DHT22;1008;47.404;8.502;2023-08-20T09:04:56;29.80;99.90
2010;DHT22;1008;47.404;8.502;2023-08-20T09:07:23;30.00;99.90
2010;DHT22;1008;47.404;8.502;2023-08-20T09:09:57;29.90;99.90
2010;DHT22;1008;47.404;8.502;2023-08-20T09:12:24;30.10;99.90
2010;DHT22;1008;47.404;8.502;2023-08-20T09:14:52;30.00;99.90
2010;DHT22;1008;47.404;8.502;2023-08-20T09:17:20;30.50;99.90
2010;DHT22;1008;47.404;8.502;2023-08-20T09:19:47;30.70;99.90
2010;DHT22;1008;47.404;8.502;2023-08-20T09:22:15;30.70;99.90
2010;DHT22;1008;47.404;8.502;2023-08-20T09:24:43;30.90;99.90
2010;DHT22;1008;47.404;8.502;2023-08-20T09:27:12;31.10;99.90
2010;DHT22;1008;47.404;8.502;2023-08-20T09:29:46;31.30;99.90
2010;DHT22;1008;47.404;8.502;2023-08-20T09:32:17;31.30;99.90
2010;DHT22;1008;47.404;8.502;2023-08-20T09:34:44;31.60;99.90
2010;DHT22;1008;47.404;8.502;2023-08-20T09:37:13;31.80;99.90
2010;DHT22;1008;47.404;8.502;2023-08-20T09:39:40;32.00;99.90
2010;DHT22;1008;47.404;8.502;2023-08-20T09:42:08;31.80;99.90
2010;DHT22;1008;47.404;8.502;2023-08-20T09:44:37;31.90;99.90
2010;DHT22;1008;47.404;8.502;2023-08-20T09:47:06;32.00;99.90
2010;DHT22;1008;47.404;8.502;2023-08-20T09:49:36;32.20;99.90
2010;DHT22;1008;47.404;8.502;2023-08-20T09:52:05;32.10;99.90
2010;DHT22;1008;47.404;8.502;2023-08-20T09:54:45;32.10;99.90
2010;DHT22;1008;47.404;8.502;2023-08-20T09:57:26;32.20;99.90
2010;DHT22;1008;47.404;8.502;2023-08-20T09:59:55;32.20;99.90
2010;DHT22;1008;47.404;8.502;2023-08-20T10:02:23;32.40;99.90
2010;DHT22;1008;47.404;8.502;2023-08-20T10:04:50;32.50;99.90
2010;DHT22;1008;47.404;8.502;2023-08-20T10:07:18;32.30;99.90
2010;DHT22;1008;47.404;8.502;2023-08-20T10:09:46;32.30;99.90
2010;DHT22;1008;47.404;8.502;2023-08-20T10:12:16;32.20;99.90
2010;DHT22;1008;47.404;8.502;2023-08-20T10:14:42;32.20;99.90
2010;DHT22;1008;47.404;8.502;2023-08-20T10:17:11;32.30;99.90
2010;DHT22;1008;47.404;8.502;2023-08-20T10:19:40;32.20;99.90
2010;DHT22;1008;47.404;8.502;2023-08-20T10:22:08;31.90;99.90
2010;DHT22;1008;47.404;8.502;2023-08-20T10:24:41;32.20;99.90
2010;DHT22;1008;47.404;8.502;2023-08-20T10:27:13;32.30;99.90
2010;DHT22;1008;47.404;8.502;2023-08-20T10:29:40;32.60;99.90
2010;DHT22;1008;47.404;8.502;2023-08-20T10:32:10;32.60;99.90
2010;DHT22;1008;47.404;8.502;2023-08-20T10:34:38;32.60;99.90
2010;DHT22;1008;47.404;8.502;2023-08-20T10:37:12;32.40;99.90
2010;DHT22;1008;47.404;8.502;2023-08-20T10:39:39;32.70;99.90
2010;DHT22;1008;47.404;8.502;2023-08-20T10:42:08;32.90;99.90
2010;DHT22;1008;47.404;8.502;2023-08-20T10:44:57;32.90;99.90
2010;DHT22;1008;47.404;8.502;2023-08-20T10:47:25;32.80;99.90
2010;DHT22;1008;47.404;8.502;2023-08-20T10:49:53;32.80;99.90
2010;DHT22;1008;47.404;8.502;2023-08-20T10:52:19;32.50;99.90
2010;DHT22;1008;47.404;8.502;2023-08-20T10:54:49;32.50;99.90
2010;DHT22;1008;47.404;8.502;2023-08-20T10:57:16;32.50;99.90
2010;DHT22;1008;47.404;8.502;2023-08-20T10:59:56;32.80;99.90
2010;DHT22;1008;47.404;8.502;2023-08-20T11:02:28;33.20;99.90
2010;DHT22;1008;47.404;8.502;2023-08-20T11:04:55;33.70;99.90
2010;DHT22;1008;47.404;8.502;2023-08-20T11:07:23;33.90;99.90
2010;DHT22;1008;47.404;8.502;2023-08-20T11:09:50;34.50;99.90
2010;DHT22;1008;47.404;8.502;2023-08-20T11:12:20;34.60;99.90
2010;DHT22;1008;47.404;8.502;2023-08-20T11:14:48;35.00;99.90
2010;DHT22;1008;47.404;8.502;2023-08-20T11:17:15;35.00;99.90
2010;DHT22;1008;47.404;8.502;2023-08-20T11:19:43;35.00;99.90
2010;DHT22;1008;47.404;8.502;2023-08-20T11:22:10;34.80;99.90
2010;DHT22;1008;47.404;8.502;2023-08-20T11:24:41;35.00;99.90
2010;DHT22;1008;47.404;8.502;2023-08-20T11:27:08;35.10;99.90
2010;DHT22;1008;47.404;8.502;2023-08-20T11:29:35;35.00;99.90
2010;DHT22;1008;47.404;8.502;2023-08-20T11:32:02;35.10;99.90
2010;DHT22;1008;47.404;8.502;2023-08-20T11:34:29;35.10;99.90
2010;DHT22;1008;47.404;8.502;2023-08-20T11:36:59;34.80;99.90
2010;DHT22;1008;47.404;8.502;2023-08-20T11:39:26;34.30;99.90
2010;DHT22;1008;47.404;8.502;2023-08-20T11:41:52;34.50;99.90
2010;DHT22;1008;47.404;8.502;2023-08-20T11:44:20;34.80;99.90
2010;DHT22;1008;47.404;8.502;2023-08-20T11:46:47;35.10;99.90
2010;DHT22;1008;47.404;8.502;2023-08-20T11:49:15;35.30;99.90
2010;DHT22;1008;47.404;8.502;2023-08-20T11:51:42;35.40;99.90
2010;DHT22;1008;47.404;8.502;2023-08-20T11:54:13;35.70;99.90
2010;DHT22;1008;47.404;8.502;2023-08-20T11:56:43;36.00;99.90
2010;DHT22;1008;47.404;8.502;2023-08-20T11:59:10;36.30;99.90
2010;DHT22;1008;47.404;8.502;2023-08-20T12:01:37;36.70;99.90
2010;DHT22;1008;47.404;8.502;2023-08-20T12:04:06;36.70;99.90
2010;DHT22;1008;47.404;8.502;2023-08-20T12:06:33;36.60;99.90
2010;DHT22;1008;47.404;8.502;2023-08-20T12:09:01;36.20;99.90
2010;DHT22;1008;47.404;8.502;2023-08-20T12:11:31;36.30;99.90
2010;DHT22;1008;47.404;8.502;2023-08-20T12:13:58;36.50;99.90
2010;DHT22;1008;47.404;8.502;2023-08-20T12:16:25;36.80;99.90
2010;DHT22;1008;47.404;8.502;2023-08-20T12:18:52;36.60;99.90
2010;DHT22;1008;47.404;8.502;2023-08-20T12:21:19;36.50;99.90
2010;DHT22;1008;47.404;8.502;2023-08-20T12:23:46;36.60;99.90
2010;DHT22;1008;47.404;8.502;2023-08-20T12:26:12;36.40;99.90
2010;DHT22;1008;47.404;8.502;2023-08-20T12:28:40;36.50;99.90
2010;DHT22;1008;47.404;8.502;2023-08-20T12:31:07;36.60;99.90
2010;DHT22;1008;47.404;8.502;2023-08-20T12:33:34;37.00;99.90
2010;DHT22;1008;47.404;8.502;2023-08-20T12:36:01;37.00;99.90
2010;DHT22;1008;47.404;8.502;2023-08-20T12:38:28;37.00;99.90
2010;DHT22;1008;47.404;8.502;2023-08-20T12:40:59;36.80;99.90
2010;DHT22;1008;47.404;8.502;2023-08-20T12:43:25;37.20;99.90
2010;DHT22;1008;47.404;8.502;2023-08-20T12:45:53;37.20;99.90
2010;DHT22;1008;47.404;8.502;2023-08-20T12:48:20;36.80;99.90
2010;DHT22;1008;47.404;8.502;2023-08-20T12:50:47;36.10;99.90
2010;DHT22;1008;47.404;8.502;2023-08-20T12:53:13;35.90;99.90
2010;DHT22;1008;47.404;8.502;2023-08-20T12:55:40;36.10;99.90
2010;DHT22;1008;47.404;8.502;2023-08-20T12:58:07;36.00;99.90
2010;DHT22;1008;47.404;8.502;2023-08-20T13:00:33;36.10;99.90
2010;DHT22;1008;47.404;8.502;2023-08-20T13:03:03;36.40;99.90
2010;DHT22;1008;47.404;8.502;2023-08-20T13:05:30;36.50;99.90
2010;DHT22;1008;47.404;8.502;2023-08-20T13:07:57;36.40;99.90
2010;DHT22;1008;47.404;8.502;2023-08-20T13:10:25;36.20;99.90
2010;DHT22;1008;47.404;8.502;2023-08-20T13:12:52;36.10;99.90
2010;DHT22;1008;47.404;8.502;2023-08-20T13:15:21;36.10;99.90
2010;DHT22;1008;47.404;8.502;2023-08-20T13:17:49;35.90;99.90
2010;DHT22;1008;47.404;8.502;2023-08-20T13:20:17;35.70;99.90
2010;DHT22;1008;47.404;8.502;2023-08-20T13:22:47;36.00;99.90
2010;DHT22;1008;47.404;8.502;2023-08-20T13:25:13;36.40;99.90
2010;DHT22;1008;47.404;8.502;2023-08-20T13:27:40;36.30;99.90
2010;DHT22;1008;47.404;8.502;2023-08-20T13:30:08;36.30;99.90
2010;DHT22;1008;47.404;8.502;2023-08-20T13:32:35;36.10;99.90
2010;DHT22;1008;47.404;8.502;2023-08-20T13:35:01;36.10;99.90
2010;DHT22;1008;47.404;8.502;2023-08-20T13:37:31;36.00;99.90
2010;DHT22;1008;47.404;8.502;2023-08-20T13:39:58;35.70;99.90
2010;DHT22;1008;47.404;8.502;2023-08-20T13:42:25;35.80;99.90
2010;DHT22;1008;47.404;8.502;2023-08-20T13:44:51;35.90;99.90
2010;DHT22;1008;47.404;8.502;2023-08-20T13:47:18;36.10;99.90
2010;DHT22;1008;47.404;8.502;2023-08-20T13:49:45;36.50;99.90
2010;DHT22;1008;47.404;8.502;2023-08-20T13:52:11;36.50;99.90
2010;DHT22;1008;47.404;8.502;2023-08-20T13:54:39;36.60;99.90
2010;DHT22;1008;47.404;8.502;2023-08-20T13:57:06;36.60;99.90
2010;DHT22;1008;47.404;8.502;2023-08-20T13:59:33;36.20;99.90
2010;DHT22;1008;47.404;8.502;2023-08-20T14:01:59;36.00;99.90
2010;DHT22;1008;47.404;8.502;2023-08-20T14:04:26;35.90;99.90
2010;DHT22;1008;47.404;8.502;2023-08-20T14:06:53;35.70;99.90
2010;DHT22;1008;47.404;8.502;2023-08-20T14:09:19;35.80;99.90
2010;DHT22;1008;47.404;8.502;2023-08-20T14:11:48;36.20;99.90
2010;DHT22;1008;47.404;8.502;2023-08-20T14:14:14;36.30;99.90
2010;DHT22;1008;47.404;8.502;2023-08-20T14:16:41;36.20;99.90
2010;DHT22;1008;47.404;8.502;2023-08-20T14:19:08;36.00;99.90
2010;DHT22;1008;47.404;8.502;2023-08-20T14:21:35;35.70;99.90
2010;DHT22;1008;47.404;8.502;2023-08-20T14:24:01;35.50;99.90
2010;DHT22;1008;47.404;8.502;2023-08-20T14:26:28;35.40;99.90
2010;DHT22;1008;47.404;8.502;2023-08-20T14:28:56;35.30;99.90
2010;DHT22;1008;47.404;8.502;2023-08-20T14:31:23;35.50;99.90
2010;DHT22;1008;47.404;8.502;2023-08-20T14:33:50;35.50;99.90
2010;DHT22;1008;47.404;8.502;2023-08-20T14:36:17;35.40;99.90
2010;DHT22;1008;47.404;8.502;2023-08-20T14:38:43;35.60;99.90
2010;DHT22;1008;47.404;8.502;2023-08-20T14:41:10;35.60;99.90
2010;DHT22;1008;47.404;8.502;2023-08-20T14:43:38;35.50;99.90
2010;DHT22;1008;47.404;8.502;2023-08-20T14:46:08;35.70;99.90
2010;DHT22;1008;47.404;8.502;2023-08-20T14:48:35;36.00;99.90
2010;DHT22;1008;47.404;8.502;2023-08-20T14:51:06;36.30;99.90
2010;DHT22;1008;47.404;8.502;2023-08-20T14:53:33;36.30;99.90
2010;DHT22;1008;47.404;8.502;2023-08-20T14:55:59;36.40;99.90
2010;DHT22;1008;47.404;8.502;2023-08-20T14:58:26;36.50;99.90
2010;DHT22;1008;47.404;8.502;2023-08-20T15:00:53;36.50;99.90
2010;DHT22;1008;47.404;8.502;2023-08-20T15:03:21;36.50;99.90
2010;DHT22;1008;47.404;8.502;2023-08-20T15:05:48;36.50;99.90
2010;DHT22;1008;47.404;8.502;2023-08-20T15:08:14;36.50;99.90
2010;DHT22;1008;47.404;8.502;2023-08-20T15:10:41;36.60;99.90
2010;DHT22;1008;47.404;8.502;2023-08-20T15:13:08;36.70;99.90
2010;DHT22;1008;47.404;8.502;2023-08-20T15:15:34;36.70;99.90
2010;DHT22;1008;47.404;8.502;2023-08-20T15:18:01;36.80;99.90
2010;DHT22;1008;47.404;8.502;2023-08-20T15:20:29;36.50;99.90
2010;DHT22;1008;47.404;8.502;2023-08-20T15:22:56;36.60;99.90
2010;DHT22;1008;47.404;8.502;2023-08-20T15:25:23;36.50;99.90
2010;DHT22;1008;47.404;8.502;2023-08-20T15:27:49;36.30;99.90
2010;DHT22;1008;47.404;8.502;2023-08-20T15:30:16;36.20;99.90
2010;DHT22;1008;47.404;8.502;2023-08-20T15:32:44;36.10;99.90
2010;DHT22;1008;47.404;8.502;2023-08-20T15:35:11;36.00;99.90
2010;DHT22;1008;47.404;8.502;2023-08-20T15:37:39;36.00;99.90
2010;DHT22;1008;47.404;8.502;2023-08-20T15:40:06;36.10;99.90
2010;DHT22;1008;47.404;8.502;2023-08-20T15:42:37;36.00;99.90
2010;DHT22;1008;47.404;8.502;2023-08-20T15:45:05;35.90;99.90
2010;DHT22;1008;47.404;8.502;2023-08-20T15:47:31;35.90;99.90
2010;DHT22;1008;47.404;8.502;2023-08-20T15:49:58;35.70;99.90
2010;DHT22;1008;47.404;8.502;2023-08-20T15:52:25;35.60;99.90
2010;DHT22;1008;47.404;8.502;2023-08-20T15:54:53;35.40;99.90
2010;DHT22;1008;47.404;8.502;2023-08-20T15:57:20;35.60;99.90
2010;DHT22;1008;47.404;8.502;2023-08-20T15:59:46;35.70;99.90
2010;DHT22;1008;47.404;8.502;2023-08-20T16:02:13;36.10;99.90
2010;DHT22;1008;47.404;8.502;2023-08-20T16:04:40;36.00;99.90
2010;DHT22;1008;47.404;8.502;2023-08-20T16:07:07;36.00;99.90
2010;DHT22;1008;47.404;8.502;2023-08-20T16:09:36;36.10;99.90